Latest Weather Observations for Camooweal

IDQ60801

Issued at 1:12 pm EST Friday 16 November 2018 (issued every 10 minutes, with the page automatically refreshed every 10 minutes)

About weather observations | Map of weather stations | Latest weather observations for QLD | Other Formats
Station Details ID: 037010 Name: CAMOOWEAL TOWNSHIP Lat: -19.92 Lon: 138.12 Height: 231.2 m
Data from the previous 72 hours. | See also: Recent months at Camooweal
Date/Time
EST
Temp
°C
App
Temp
°C
Dew
Point
°C
Rel
Hum
%
Delta-T
°C
Wind Press
QNH
hPa
Press
MSL
hPa
Rain since
9am
mm
Dir  Spd
km/h
Gust
km/h
Spd
kts
Gust
kts
16/01:00pm 37.3 35.4 10.6 20 15.9 SE 11 20 6 11 1011.0 1009.3 0.0
16/12:30pm 37.4 35.8 11.4 21 15.6 ENE 11 22 6 12 1011.5 1009.8 0.0
16/12:00pm 37.7 36.3 12.3 22 15.5 SSE 11 24 6 13 1012.1 1010.4 0.0
16/11:30am 36.9 35.8 13.0 24 14.7 NE 11 15 6 8 1012.5 1010.8 0.0
16/11:00am 36.2 34.5 13.6 25 14.0 ENE 15 24 8 13 1012.9 1011.2 0.0
16/10:30am 35.1 34.4 15.4 30 12.4 SE 13 19 7 10 1013.3 1011.7 0.0
16/10:00am 33.9 33.0 14.9 32 11.9 SSE 13 20 7 11 1013.6 1012.0 0.0
16/09:30am 32.5 31.6 15.9 36 10.5 SSE 15 20 8 11 1013.7 1012.1 0.0
16/09:00am 31.3 30.3 15.7 39 9.8 SSE 15 26 8 14 1013.8 1012.2 0.2
16/08:30am 30.3 30.8 18.4 49 7.7 S 13 17 7 9 1014.1 1012.5 0.2
16/08:00am 28.3 29.9 19.2 57 5.9 SSW 9 11 5 6 1014.0 1012.4 0.2
16/07:30am 26.9 28.4 19.0 62 5.1 SSW 9 13 5 7 1013.7 1012.1 0.2
16/07:00am 25.6 29.1 20.4 73 3.4 SSW 2 7 1 4 1013.6 1012.0 0.2
16/06:30am 24.4 27.1 20.3 78 2.7 S 6 9 3 5 1013.4 1011.8 0.2
16/06:00am 23.9 26.3 20.0 79 2.5 S 7 13 4 7 1013.1 1011.5 0.2
16/05:30am 23.8 25.2 20.3 81 2.3 SSE 13 32 7 17 1012.4 1010.7 0.2
16/05:00am 23.5 27.3 20.2 82 2.2 CALM 0 0 0 0 1012.1 1010.4 0.2
16/04:30am 23.6 26.0 19.7 79 2.5 SW 6 7 3 4 1011.9 1010.2 0.2
16/04:00am 23.9 26.3 20.0 79 2.5 WSW 7 11 4 6 1011.8 1010.1 0.2
16/03:30am 24.0 25.9 20.5 81 2.3 WSW 11 15 6 8 1011.7 1010.0 0.2
16/03:00am 24.1 27.3 20.6 81 2.3 W 4 7 2 4 1011.6 1009.9 0.2
16/02:30am 24.8 27.3 19.8 74 3.3 NNW 6 7 3 4 1011.7 1010.0 0.2
16/02:00am 24.7 28.3 19.8 74 3.2 CALM 0 0 0 0 1011.7 1010.0 0.2
16/01:30am 24.9 27.3 19.7 73 3.4 NW 6 7 3 4 1012.1 1010.4 0.2
16/01:00am 25.5 27.8 19.9 71 3.7 N 7 11 4 6 1012.4 1010.7 0.2
16/12:30am 25.8 26.4 19.4 67 4.2 NNE 15 24 8 13 1012.5 1010.8 0.2
16/12:00am 26.7 27.8 19.6 65 4.6 ENE 13 19 7 10 1013.0 1011.3 0.2
 
Date/Time
EST
Temp
°C
App
Temp
°C
Dew
Point
°C
Rel
Hum
%
Delta-T
°C
Wind Press
QNH
hPa
Press
MSL
hPa
Rain since
9am
mm
Dir  Spd
km/h
Gust
km/h
Spd
kts
Gust
kts
15/11:30pm 27.2 29.7 19.0 61 5.3 N 4 7 2 4 1012.6 1010.9 0.2
15/11:00pm 27.5 29.4 19.0 59 5.5 N 7 11 4 6 1012.9 1011.2 0.2
15/10:30pm 28.3 29.3 18.7 56 6.2 N 11 17 6 9 1012.9 1011.2 0.2
15/10:00pm 28.5 29.4 19.2 57 6.1 N 13 17 7 9 1012.7 1011.0 0.2
15/09:30pm 28.8 28.6 18.6 54 6.6 N 17 22 9 12 1012.5 1010.8 0.2
15/09:00pm 29.8 28.4 17.9 48 7.7 N 22 32 12 17 1012.3 1010.6 0.2
15/08:30pm 31.3 31.5 18.6 46 8.3 NNE 15 35 8 19 1012.0 1010.3 0.2
15/08:00pm 31.7 32.6 18.3 45 8.7 NE 11 13 6 7 1011.7 1010.0 0.2
15/07:30pm 32.8 33.3 17.4 39 9.9 NE 11 15 6 8 1011.5 1009.8 0.2
15/07:00pm 34.4 33.7 13.3 28 12.9 S 9 13 5 7 1011.1 1009.4 0.2
15/06:30pm 35.9 34.9 13.4 26 13.9 SSE 11 15 6 8 1010.8 1009.1 0.2
15/06:00pm 36.3 34.6 13.7 25 14.0 S 15 22 8 12 1010.7 1009.0 0.2
15/05:30pm 36.3 33.9 13.7 25 14.0 S 19 26 10 14 1010.1 1008.5 0.2
15/05:00pm 36.1 34.4 14.7 28 13.4 SSE 17 20 9 11 1010.1 1008.5 0.2
15/04:30pm 36.5 35.5 15.6 29 13.3 S 15 20 8 11 1010.1 1008.5 0.2
15/04:00pm 36.8 36.8 15.3 28 13.7 SW 9 20 5 11 1010.4 1008.8 0.2
15/03:30pm 36.5 36.8 15.0 27 13.6 NE 7 9 4 5 1011.0 1009.3 0.2
15/03:00pm 36.1 36.1 15.2 28 13.2 NE 9 13 5 7 1011.4 1009.7 0.2
15/02:30pm 36.2 37.0 15.9 30 13.0 NW 6 13 3 7 1011.7 1010.0 0.2
15/02:00pm 35.8 36.3 16.5 31 12.4 WSW 9 17 5 9 1012.1 1010.4 0.2
15/01:30pm 35.0 35.4 16.3 32 12.0 S 9 17 5 9 1012.6 1010.9 0.2
15/01:00pm 34.5 34.5 17.3 36 11.1 S 13 20 7 11 1013.1 1011.5 0.2
15/12:30pm 34.3 36.1 19.5 41 9.9 SSE 9 19 5 10 1013.5 1011.9 0.2
15/12:00pm 33.4 32.8 17.5 38 10.3 SSW 17 22 9 12 1013.7 1012.1 0.2
15/11:30am 32.6 32.5 19.5 46 8.7 SW 19 26 10 14 1014.0 1012.4 0.2
15/11:00am 30.7 31.2 20.0 52 7.1 WSW 17 22 9 12 1014.4 1012.8 0.2
15/10:30am 29.9 30.5 21.3 60 5.8 W 20 28 11 15 1014.6 1013.0 0.2
15/10:00am 29.6 30.3 20.5 58 6.1 WSW 17 24 9 13 1015.0 1013.4 0.2
15/09:30am 28.8 30.8 21.6 65 4.9 W 13 17 7 9 1015.0 1013.4 0.2
15/09:00am 27.6 29.3 20.9 67 4.5 W 13 17 7 9 1014.9 1013.3 20.4
15/08:30am 26.8 28.5 21.6 73 3.5 W 15 20 8 11 1014.9 1013.3 20.4
15/08:00am 26.6 27.8 21.4 73 3.5 W 17 20 9 11 1014.9 1013.3 20.4
15/07:30am 26.1 29.0 22.4 80 2.5 SW 11 15 6 8 1014.2 1012.6 20.4
15/07:00am 25.3 28.0 22.2 83 2.1 SW 11 15 6 8 1014.2 1012.6 20.4
15/06:30am 24.8 27.9 22.1 85 1.8 SW 9 11 5 6 1013.9 1012.3 20.4
15/06:00am 24.7 28.1 22.0 85 1.8 W 7 11 4 6 1013.4 1011.8 20.4
15/05:30am 24.8 28.1 21.5 82 2.2 NW 6 9 3 5 1012.8 1011.1 20.4
15/05:00am 25.3 28.8 21.8 81 2.4 N 6 9 3 5 1012.3 1010.6 20.4
15/04:30am 25.1 29.3 23.2 89 1.3 ENE 6 13 3 7 1012.1 1010.4 20.4
15/04:00am 25.0 28.3 23.2 90 1.2 S 11 15 6 8 1011.3 1009.6 20.4
15/03:30am 25.0 30.7 23.8 93 0.8 CALM 0 4 0 2 1010.5 1008.9 20.4
15/03:00am 24.8 30.3 23.4 92 1.0 CALM 0 4 0 2 1010.2 1008.6 20.4
15/02:30am 24.3 28.2 22.9 92 1.0 W 7 11 4 6 1010.5 1008.9 20.4
15/02:00am 23.8 26.6 23.0 95 0.5 NNW 13 17 7 9 1011.2 1009.5 20.4
15/01:30am 23.5 27.3 22.7 95 0.5 NW 7 13 4 7 1011.8 1010.1 20.4
15/01:00am 23.8 27.6 22.8 94 0.7 N 7 11 4 6 1013.2 1011.6 19.2
15/12:30am 23.8 26.8 22.6 93 0.8 ENE 11 19 6 10 1014.8 1013.2 18.4
15/12:00am 23.0 25.3 22.0 94 0.7 SSW 13 24 7 13 1014.4 1012.8 17.6
 
Date/Time
EST
Temp
°C
App
Temp
°C
Dew
Point
°C
Rel
Hum
%
Delta-T
°C
Wind Press
QNH
hPa
Press
MSL
hPa
Rain since
9am
mm
Dir  Spd
km/h
Gust
km/h
Spd
kts
Gust
kts
14/11:30pm 24.8 24.7 19.6 73 3.4 WSW 19 26 10 14 1013.8 1012.2 13.0
14/11:00pm 23.8 23.7 19.9 79 2.5 NNE 20 26 11 14 1012.7 1011.0 13.0
14/10:44pm 21.5 17.2 20.3 93 0.8 E 43 72 23 39 1013.3 1011.7 11.0
14/10:41pm 21.6 15.3 20.4 93 0.8 ESE 54 91 29 49 1013.2 1011.6 10.0
14/10:30pm 21.3 13.9 19.4 89 1.2 SE 57 82 31 44 1012.9 1011.2 2.2
14/10:27pm 21.5 13.2 18.3 82 2.0 SE 59 82 32 44 1012.9 1011.2 1.0
14/10:13pm 26.7 21.8 15.4 50 6.9 SSE 35 85 19 46 1011.5 1009.8 0.0
14/10:09pm 29.1 27.4 16.3 46 8.0 SE 20 67 11 36 1012.0 1010.3 0.0
14/10:00pm 32.2 32.8 17.7 42 9.4 NE 11 20 6 11 1011.0 1009.3 0.0
14/09:30pm 32.6 33.6 16.8 38 10.1 N 7 9 4 5 1010.0 1008.4 0.0
14/09:00pm 33.1 33.4 16.0 35 10.8 NNE 9 13 5 7 1009.7 1008.1 0.0
14/08:30pm 33.8 34.0 15.7 33 11.4 N 9 11 5 6 1009.7 1008.1 0.0
14/08:00pm 34.2 34.5 16.1 34 11.5 N 9 13 5 7 1009.3 1007.7 0.0
14/07:30pm 34.8 34.2 15.7 32 12.1 N 13 20 7 11 1008.6 1006.9 0.0
14/07:00pm 35.4 34.1 15.7 31 12.5 NNE 17 24 9 13 1008.2 1006.5 0.0
14/06:30pm 35.7 34.2 15.4 29 12.9 N 17 28 9 15 1008.0 1006.3 0.0
14/06:00pm 37.2 34.3 13.9 25 14.5 NNE 22 33 12 18 1007.9 1006.2 0.0
14/05:30pm 38.7 38.3 12.5 21 16.1 SW 6 11 3 6 1007.6 1005.9 0.0
14/05:00pm 38.8 36.7 11.0 19 16.8 SSW 13 17 7 9 1007.5 1005.8 0.0
14/04:30pm 38.8 38.4 11.0 19 16.7 W 4 9 2 5 1007.6 1005.9 0.0
14/04:00pm 39.2 38.3 11.3 19 16.9 E 7 11 4 6 1007.8 1006.1 0.0
14/03:30pm 39.4 38.4 12.3 20 16.6 SSW 9 19 5 10 1008.1 1006.4 0.0
14/03:00pm 39.3 39.1 12.9 20 16.4 NNW 6 11 3 6 1008.4 1006.7 0.0
14/02:30pm 38.4 37.2 12.9 22 15.7 NNW 11 20 6 11 1008.7 1007.0 0.0
14/02:00pm 39.7 39.3 14.0 22 16.2 SW 9 13 5 7 1009.2 1007.6 0.0
14/01:30pm 39.1 39.1 13.5 22 16.0 NW 6 13 3 7 1009.6 1008.0 0.0
14/01:00pm 38.6 38.5 13.8 23 15.5 NNE 7 13 4 7 1010.0 1008.4 0.0
14/12:30pm 38.0 38.1 14.5 24 14.8 SW 7 13 4 7 1010.5 1008.9 0.0
14/12:00pm 37.6 37.4 14.8 25 14.4 NW 9 15 5 8 1011.0 1009.3 0.0
14/11:30am 36.5 36.4 15.0 27 13.6 N 9 17 5 9 1011.5 1009.8 0.0
14/11:00am 35.4 34.0 14.6 28 13.0 N 15 28 8 15 1011.9 1010.2 0.0
14/10:30am 34.5 33.0 15.4 32 12.0 N 17 26 9 14 1012.2 1010.5 0.0
14/10:00am 33.2 31.8 17.0 38 10.4 N 20 30 11 16 1012.3 1010.6 0.0
14/09:30am 31.9 30.5 17.0 41 9.5 N 20 30 11 16 1012.5 1010.8 0.0
14/09:00am 30.7 30.1 18.8 49 7.8 NNE 20 28 11 15 1012.6 1010.9 1.2
14/08:30am 29.2 28.6 18.9 53 6.7 N 20 30 11 16 1012.4 1010.7 1.2
14/08:00am 27.2 27.4 19.3 62 5.1 N 17 24 9 13 1012.5 1010.8 1.2
14/07:30am 26.7 28.2 18.8 62 5.1 NE 9 13 5 7 1012.3 1010.6 1.2
14/07:00am 25.6 26.8 19.0 67 4.3 NNE 11 20 6 11 1012.1 1010.4 1.2
14/06:30am 24.9 25.2 19.5 72 3.5 NE 17 24 9 13 1011.7 1010.0 1.2
14/06:00am 24.6 24.2 18.8 70 3.7 NE 19 24 10 13 1011.6 1009.9 1.2
14/05:30am 24.4 23.9 18.6 70 3.7 NE 19 26 10 14 1011.3 1009.6 1.2
14/05:00am 24.1 23.6 18.7 72 3.5 NNE 19 26 10 14 1010.9 1009.2 1.2
14/04:30am 24.0 24.0 18.9 73 3.3 NE 17 24 9 13 1011.1 1009.4 1.2
14/04:00am 24.8 25.7 19.2 71 3.6 ENE 13 22 7 12 1011.8 1010.1 1.2
14/03:30am 24.9 26.5 19.9 74 3.3 WNW 11 15 6 8 1011.7 1010.0 1.2
14/03:00am 25.1 25.8 20.4 75 3.1 NE 17 26 9 14 1011.6 1009.9 1.2
14/02:30am 24.9 24.8 19.9 74 3.3 ENE 20 32 11 17 1010.5 1008.9 1.2
14/02:00am 24.7 23.1 20.0 75 3.1 E 28 35 15 19 1010.9 1009.2 1.2
14/01:30am 25.0 25.3 21.5 81 2.3 SE 22 30 12 16 1010.9 1009.2 1.2
14/01:00am 25.8 27.4 22.1 80 2.5 SSE 17 22 9 12 1010.4 1008.8 1.2
14/12:30am 25.6 28.2 21.9 80 2.5 SSE 11 13 6 7 1010.4 1008.8 1.2
14/12:00am 25.3 26.0 21.6 80 2.5 ESE 20 30 11 16 1009.9 1008.3 1.2
 
Date/Time
EST
Temp
°C
App
Temp
°C
Dew
Point
°C
Rel
Hum
%
Delta-T
°C
Wind Press
QNH
hPa
Press
MSL
hPa
Rain since
9am
mm
Dir  Spd
km/h
Gust
km/h
Spd
kts
Gust
kts
13/11:30pm 25.8 27.5 21.7 78 2.8 N 15 19 8 10 1008.6 1006.9 1.2
13/11:00pm 25.0 25.6 21.3 80 2.5 N 20 28 11 15 1008.6 1006.9 1.2
13/10:30pm 24.8 25.2 20.7 78 2.7 NNW 19 28 10 15 1010.0 1008.4 0.8
13/10:00pm 28.4 27.9 19.9 60 5.6 NNW 22 35 12 19 1009.7 1008.1 0.0
13/09:39pm 29.9 29.0 19.0 52 7.1 NNW 22 39 12 21 1009.3 1007.7 0.0
13/09:30pm 31.6 32.9 20.8 52 7.3 N 15 20 8 11 1008.5 1006.8 0.0
13/09:00pm 33.0 33.7 18.0 41 9.8 N 11 17 6 9 1008.5 1006.8 0.0
13/08:30pm 32.4 34.0 18.2 42 9.3 WNW 7 9 4 5 1008.3 1006.6 0.0
13/08:00pm 32.9 33.0 17.5 39 10.0 SW 13 17 7 9 1007.9 1006.2 0.0
13/07:30pm 33.9 34.5 17.6 38 10.6 NW 11 17 6 9 1008.2 1006.5 0.0
13/07:00pm 35.1 33.1 13.9 28 13.1 NNE 17 24 9 13 1006.7 1005.0 0.0
13/06:30pm 35.2 33.4 14.5 29 12.9 NNE 17 22 9 12 1006.5 1004.8 0.0
13/06:00pm 35.2 33.0 16.0 31 12.3 N 22 32 12 17 1005.7 1004.1 0.0
13/05:30pm 35.4 32.2 16.2 32 12.3 N 28 35 15 19 1005.8 1004.2 0.0
13/05:00pm 34.2 31.0 18.7 40 10.2 N 33 44 18 24 1006.2 1004.5 0.0
13/04:36pm 35.8 33.1 17.5 34 11.9 N 28 46 15 25 1006.0 1004.4 0.0
13/04:30pm 37.9 34.8 15.7 27 14.2 N 26 37 14 20 1006.2 1004.5 0.0
13/04:00pm 38.0 36.3 16.3 27 14.0 N 20 35 11 19 1006.5 1004.8 0.0
13/03:30pm 38.1 36.2 15.8 26 14.3 N 20 30 11 16 1007.0 1005.3 0.0
13/03:00pm 38.0 35.1 17.9 30 13.3 N 30 41 16 22 1007.4 1005.7 0.0
13/02:30pm 38.9 36.8 17.1 28 14.3 N 24 41 13 22 1007.6 1005.9 0.0
13/02:00pm 37.8 34.3 15.6 27 14.2 NNE 28 41 15 22 1007.9 1006.2 0.0
13/01:30pm 37.7 35.0 15.5 27 14.2 N 24 41 13 22 1008.3 1006.6 0.0

Other Formats:

Comma delimited format used in spreadsheet applications
http://www.bom.gov.au/fwo/IDQ60801/IDQ60801.94255.axf

JavaScript Object Notation format (JSON) in row-major order
http://www.bom.gov.au/fwo/IDQ60801/IDQ60801.94255.json